Time;durP1;ratioP1;P1;durP2;ratioP2;P2;SDS_P1;SDS_P2;PMS_P1;PMS_P2;Temp;Humidity;BMP_temperature;BMP_pressure;BME280_temperature;BME280_humidity;BME280_pressure;Samples;Min_cycle;Max_cycle;Signal;HPM_P1;HPM_P2
2021/12/14 00:11:26;;;;;;;10.43;5.78;;;6.10;99.90;;;;;;5111967;27;20338;-85
2021/12/14 00:14:14;;;;;;;12.30;4.97;;;6.30;99.90;;;;;;5062516;28;20500;-85
2021/12/14 00:16:44;;;;;;;8.07;4.38;;;6.20;99.90;;;;;;5036685;28;20115;-84
2021/12/14 00:19:11;;;;;;;13.50;5.15;;;6.20;99.90;;;;;;5036616;28;20040;-86
2021/12/14 00:21:42;;;;;;;12.23;5.38;;;6.20;99.90;;;;;;5053397;28;20086;-86
2021/12/14 00:24:14;;;;;;;11.80;5.43;;;6.20;99.90;;;;;;5036742;28;20028;-87
2021/12/14 00:26:51;;;;;;;8.65;4.68;;;6.20;99.90;;;;;;5053525;28;20067;-86
2021/12/14 00:29:31;;;;;;;13.30;5.97;;;6.20;99.90;;;;;;5053264;28;20100;-86
2021/12/14 00:32:01;;;;;;;17.58;4.53;;;6.20;99.90;;;;;;5049240;28;20037;-85
2021/12/14 00:34:37;;;;;;;10.15;4.63;;;6.20;99.90;;;;;;5032501;28;20641;-88
2021/12/14 00:37:10;;;;;;;17.52;4.32;;;6.10;99.90;;;;;;5049291;28;20136;-87
2021/12/14 00:39:40;;;;;;;7.90;4.18;;;6.10;99.90;;;;;;5032053;28;20041;-88
2021/12/14 00:42:08;;;;;;;8.13;4.05;;;6.20;99.90;;;;;;5032518;28;20037;-87
2021/12/14 00:44:36;;;;;;;8.60;4.40;;;6.20;99.90;;;;;;5032117;28;20469;-88
2021/12/14 00:47:04;;;;;;;11.80;4.43;;;6.20;99.90;;;;;;5032316;28;20044;-88
2021/12/14 00:49:35;;;;;;;7.03;3.75;;;6.20;99.90;;;;;;5032112;28;20530;-87
2021/12/14 00:52:04;;;;;;;10.10;3.40;;;6.20;99.90;;;;;;5032283;28;20128;-87
2021/12/14 00:54:32;;;;;;;8.75;3.58;;;6.10;99.90;;;;;;5032075;28;20029;-86
2021/12/14 00:56:59;;;;;;;6.60;3.80;;;6.10;99.90;;;;;;5032049;28;20033;-87
2021/12/14 00:59:28;;;;;;;14.13;3.70;;;6.10;99.90;;;;;;5032079;28;20033;-86
2021/12/14 01:02:03;;;;;;;10.10;3.75;;;6.00;99.90;;;;;;5033679;28;20099;-89
2021/12/14 01:04:38;;;;;;;9.38;3.97;;;6.00;99.90;;;;;;5036399;28;20091;-88
2021/12/14 01:07:08;;;;;;;10.63;4.10;;;6.00;99.90;;;;;;5052654;28;20059;-87
2021/12/14 01:09:41;;;;;;;6.03;3.28;;;6.00;99.90;;;;;;5045272;28;20076;-87
2021/12/14 01:12:20;;;;;;;11.55;3.25;;;6.00;99.90;;;;;;5019126;28;20029;-88
2021/12/14 01:15:10;;;;;;;6.82;3.30;;;6.10;99.90;;;;;;5002964;28;20033;-87
2021/12/14 01:17:53;;;;;;;6.47;3.10;;;6.00;99.90;;;;;;5003071;28;20032;-88
2021/12/14 01:20:21;;;;;;;8.35;3.30;;;6.10;99.90;;;;;;5003272;28;20071;-87
2021/12/14 01:22:59;;;;;;;10.35;3.65;;;6.00;99.90;;;;;;5036591;28;20120;-87
2021/12/14 01:25:35;;;;;;;5.22;3.08;;;6.00;99.90;;;;;;5002856;28;20116;-88
2021/12/14 01:28:06;;;;;;;6.57;3.15;;;6.00;99.90;;;;;;5003029;28;20022;-88
2021/12/14 01:31:04;;;;;;;12.27;3.75;;;6.00;99.90;;;;;;5002952;28;20482;-87
2021/12/14 01:33:33;;;;;;;11.90;3.53;;;5.90;99.90;;;;;;5003089;28;20033;-87
2021/12/14 01:36:07;;;;;;;10.27;3.50;;;5.90;99.90;;;;;;5002959;28;20026;-88
2021/12/14 01:38:44;;;;;;;8.52;3.22;;;5.90;99.90;;;;;;5017394;28;20017;-87
2021/12/14 01:41:15;;;;;;;8.65;3.45;;;6.00;99.90;;;;;;5028096;28;20014;-86
2021/12/14 01:43:49;;;;;;;7.32;2.90;;;6.00;99.90;;;;;;5025036;28;20036;-87
2021/12/14 01:46:43;;;;;;;5.13;2.53;;;6.00;99.90;;;;;;5013692;28;20108;-87
2021/12/14 01:49:32;;;;;;;9.30;2.63;;;5.90;99.90;;;;;;5037719;28;20105;-86
2021/12/14 01:52:23;;;;;;;6.72;3.05;;;5.90;99.90;;;;;;5029631;28;20013;-88
2021/12/14 01:54:54;;;;;;;7.28;2.75;;;5.90;99.90;;;;;;5027844;28;20041;-86
2021/12/14 01:57:24;;;;;;;4.95;2.58;;;5.90;99.90;;;;;;5014853;28;20034;-87
2021/12/14 01:59:56;;;;;;;5.18;2.58;;;6.00;99.90;;;;;;5009668;28;20109;-86
2021/12/14 02:02:34;;;;;;;9.45;2.83;;;6.00;99.90;;;;;;5007109;28;20040;-88
2021/12/14 02:05:09;;;;;;;5.40;2.28;;;6.00;99.90;;;;;;5002125;28;20112;-87
2021/12/14 02:07:36;;;;;;;5.03;1.80;;;6.00;99.90;;;;;;5002170;28;20029;-87
2021/12/14 02:10:19;;;;;;;14.02;2.80;;;6.00;99.90;;;;;;5012978;28;20497;-87
2021/12/14 02:12:46;;;;;;;7.05;2.40;;;6.00;99.90;;;;;;5021427;28;20040;-87
2021/12/14 02:15:27;;;;;;;3.85;1.90;;;6.00;99.90;;;;;;5022069;28;20474;-88
2021/12/14 02:17:59;;;;;;;3.45;1.77;;;6.00;99.90;;;;;;5021617;28;20045;-88
2021/12/14 02:20:31;;;;;;;4.25;2.00;;;5.90;99.90;;;;;;5021696;28;20036;-88
2021/12/14 02:23:00;;;;;;;6.15;2.45;;;5.90;99.90;;;;;;5020491;28;20024;-88
2021/12/14 02:25:27;;;;;;;8.50;2.22;;;5.90;99.90;;;;;;5037742;28;20033;-88
2021/12/14 02:28:00;;;;;;;7.32;2.47;;;6.00;99.90;;;;;;5021384;28;20116;-88
2021/12/14 02:30:30;;;;;;;2.85;2.00;;;6.00;99.90;;;;;;5021410;28;20024;-87
2021/12/14 02:32:58;;;;;;;4.30;2.17;;;5.90;99.90;;;;;;5021376;28;20029;-89
2021/12/14 02:35:28;;;;;;;7.35;2.88;;;5.90;99.90;;;;;;5037731;28;20096;-89
2021/12/14 02:38:02;;;;;;;11.45;2.30;;;5.90;99.90;;;;;;5021191;28;20033;-87
2021/12/14 02:40:54;;;;;;;13.15;2.15;;;5.90;99.90;;;;;;5037512;28;20045;-87
2021/12/14 02:43:33;;;;;;;7.60;2.25;;;5.80;99.90;;;;;;5021515;28;20060;-87
2021/12/14 02:46:11;;;;;;;7.05;2.08;;;5.80;99.90;;;;;;5020906;28;20059;-87
2021/12/14 02:48:42;;;;;;;3.58;2.08;;;5.80;99.90;;;;;;5021302;28;20035;-89
2021/12/14 02:51:27;;;;;;;8.27;2.03;;;5.80;99.90;;;;;;5021035;28;20051;-89
2021/12/14 02:54:03;;;;;;;11.98;2.10;;;5.80;99.90;;;;;;5020811;28;20485;-87
2021/12/14 02:56:33;;;;;;;5.22;2.15;;;5.80;99.90;;;;;;5021026;28;20033;-87
2021/12/14 02:59:10;;;;;;;7.55;2.22;;;5.70;99.90;;;;;;5020738;28;20509;-88
2021/12/14 03:01:45;;;;;;;6.35;1.70;;;5.80;99.90;;;;;;5021512;28;20056;-87
2021/12/14 03:04:15;;;;;;;9.25;2.42;;;5.80;99.90;;;;;;5021157;28;20044;-88
2021/12/14 03:06:56;;;;;;;7.22;1.80;;;5.80;99.90;;;;;;5020656;28;20029;-89
2021/12/14 03:12:28;;;;;;;4.28;2.40;;;5.80;99.90;;;;;;5017249;28;20034;-88
2021/12/14 03:15:01;;;;;;;4.85;2.55;;;5.80;99.90;;;;;;5000956;28;20030;-87
2021/12/14 03:17:30;;;;;;;7.50;3.08;;;5.80;99.90;;;;;;5000893;28;20041;-88
2021/12/14 03:20:11;;;;;;;5.47;1.98;;;5.80;99.90;;;;;;4993998;28;20046;-87
2021/12/14 03:22:46;;;;;;;6.93;1.92;;;5.70;99.90;;;;;;4971494;28;20040;-88
2021/12/14 03:25:15;;;;;;;8.40;2.33;;;5.80;99.90;;;;;;4954968;29;20086;-88
2021/12/14 03:27:44;;;;;;;5.43;2.05;;;5.70;99.90;;;;;;4971140;28;20043;-88
2021/12/14 03:30:24;;;;;;;7.85;2.38;;;5.70;99.90;;;;;;4970628;28;20416;-87
2021/12/14 03:33:03;;;;;;;9.23;2.58;;;5.70;99.90;;;;;;4954192;28;20035;-88
2021/12/14 03:35:45;;;;;;;5.00;2.53;;;5.70;99.90;;;;;;4970529;28;20027;-87
2021/12/14 03:38:22;;;;;;;4.50;1.67;;;5.70;99.90;;;;;;4970755;28;20382;-87
2021/12/14 03:41:13;;;;;;;3.25;1.60;;;5.70;99.90;;;;;;4971138;28;20515;-88
2021/12/14 03:43:50;;;;;;;4.05;1.73;;;5.70;99.90;;;;;;4970672;28;20050;-87
2021/12/14 03:46:18;;;;;;;4.07;1.98;;;5.70;99.90;;;;;;4970526;28;20041;-87
2021/12/14 03:48:46;;;;;;;6.55;2.00;;;5.70;99.90;;;;;;4970375;28;20039;-88
2021/12/14 03:51:20;;;;;;;9.23;2.22;;;5.60;99.90;;;;;;4970584;28;20035;-88
2021/12/14 03:53:51;;;;;;;5.55;2.63;;;5.60;99.90;;;;;;4977013;28;20049;-87
2021/12/14 03:56:21;;;;;;;4.10;1.65;;;5.60;99.90;;;;;;4978849;28;20041;-89
2021/12/14 03:58:50;;;;;;;7.05;2.33;;;5.60;99.90;;;;;;5000752;28;20037;-88
2021/12/14 04:01:27;;;;;;;2.88;2.03;;;5.70;99.90;;;;;;5000275;28;20034;-88
2021/12/14 04:04:16;;;;;;;11.05;1.95;;;5.70;99.90;;;;;;4977547;28;20439;-88
2021/12/14 04:06:49;;;;;;;4.60;1.95;;;5.70;99.90;;;;;;4976706;28;20134;-89
2021/12/14 04:09:19;;;;;;;9.68;2.17;;;5.70;99.90;;;;;;4965086;28;20038;-89
2021/12/14 04:11:47;;;;;;;5.82;2.03;;;5.70;99.90;;;;;;4979998;28;20112;-88
2021/12/14 04:14:15;;;;;;;6.00;2.08;;;5.70;99.90;;;;;;4980014;28;20034;-87
2021/12/14 04:16:47;;;;;;;6.45;2.67;;;5.60;99.90;;;;;;4979848;28;20096;-87
2021/12/14 04:19:23;;;;;;;7.90;1.98;;;5.60;99.90;;;;;;4980016;28;20136;-90
2021/12/14 04:21:58;;;;;;;5.43;1.75;;;5.60;99.90;;;;;;4979623;28;20034;-82
2021/12/14 04:24:30;;;;;;;9.30;2.28;;;5.50;99.90;;;;;;4979349;28;20061;-85
2021/12/14 04:27:00;;;;;;;4.72;1.65;;;5.50;99.90;;;;;;4979650;28;20499;-85
2021/12/14 04:29:30;;;;;;;4.35;2.22;;;5.50;99.90;;;;;;4979728;28;20072;-85
2021/12/14 04:32:07;;;;;;;4.32;2.05;;;5.50;99.90;;;;;;4980002;28;20049;-85
2021/12/14 04:34:33;;;;;;;8.25;1.73;;;5.60;99.90;;;;;;4986648;28;20091;-89
2021/12/14 04:37:02;;;;;;;3.15;1.70;;;5.60;99.90;;;;;;5016252;28;20037;-88
2021/12/14 04:39:39;;;;;;;6.85;2.08;;;5.60;99.90;;;;;;5016096;28;20444;-87
2021/12/14 04:54:03;;;;;;;4.35;1.80;;;5.60;99.90;;;;;;5019748;28;20076;-89
2021/12/14 04:56:40;;;;;;;5.28;1.73;;;5.60;99.90;;;;;;5000870;28;20124;-88
2021/12/14 04:59:12;;;;;;;5.82;2.22;;;5.60;99.90;;;;;;5019643;28;20049;-88
2021/12/14 05:01:42;;;;;;;7.28;2.05;;;5.70;99.90;;;;;;5019862;28;20486;-87
2021/12/14 05:04:18;;;;;;;6.60;2.17;;;5.70;99.90;;;;;;5020055;28;20052;-88
2021/12/14 05:06:53;;;;;;;8.02;2.03;;;5.70;99.90;;;;;;5019964;28;20056;-88
2021/12/14 05:09:29;;;;;;;3.50;1.45;;;5.70;99.90;;;;;;5019479;28;20041;-90
2021/12/14 05:12:22;;;;;;;6.15;2.33;;;5.70;99.90;;;;;;5006237;28;20502;-87
2021/12/14 05:15:02;;;;;;;4.82;1.80;;;5.70;99.90;;;;;;5004517;28;20041;-88
2021/12/14 05:17:35;;;;;;;9.05;2.08;;;5.70;99.90;;;;;;5003325;28;20474;-88
2021/12/14 05:20:08;;;;;;;7.57;2.10;;;5.80;99.90;;;;;;5003036;28;20108;-89
2021/12/14 05:22:42;;;;;;;3.63;2.07;;;5.80;99.90;;;;;;5003190;28;20189;-89
2021/12/14 05:25:24;;;;;;;6.28;1.58;;;5.80;99.90;;;;;;5003064;28;20038;-90
2021/12/14 05:27:57;;;;;;;10.10;3.47;;;5.80;99.90;;;;;;5003344;28;20116;-90
2021/12/14 05:30:32;;;;;;;3.88;1.80;;;5.80;99.90;;;;;;5004531;28;20268;-87
2021/12/14 05:33:20;;;;;;;12.60;1.73;;;5.80;99.90;;;;;;5003924;28;20493;-90
2021/12/14 05:35:50;;;;;;;5.03;1.52;;;5.80;99.90;;;;;;5003319;28;20036;-93
2021/12/14 05:38:28;;;;;;;5.05;2.00;;;5.80;99.90;;;;;;5003329;28;20037;-90
2021/12/14 05:41:09;;;;;;;6.70;2.00;;;5.80;99.90;;;;;;5003462;28;20033;-90
2021/12/14 05:43:43;;;;;;;7.50;2.53;;;5.80;99.90;;;;;;5003351;28;20034;-89
2021/12/14 05:46:23;;;;;;;9.13;1.92;;;5.80;99.90;;;;;;5004448;28;20117;-92
2021/12/14 05:49:11;;;;;;;4.53;1.77;;;5.80;99.90;;;;;;5022180;28;20079;-91
2021/12/14 05:51:39;;;;;;;5.63;2.33;;;5.80;99.90;;;;;;5002710;28;20055;-90
2021/12/14 05:54:06;;;;;;;5.93;1.55;;;5.80;99.90;;;;;;5002103;28;20033;-88
2021/12/14 05:56:34;;;;;;;9.23;2.85;;;5.80;99.90;;;;;;5002380;28;20030;-88
2021/12/14 05:59:02;;;;;;;7.68;1.98;;;5.80;99.90;;;;;;5002271;28;20133;-88
2021/12/14 06:01:32;;;;;;;8.32;1.90;;;5.70;99.90;;;;;;5018527;28;20120;-87
2021/12/14 06:04:06;;;;;;;8.38;2.08;;;5.70;99.90;;;;;;5002100;28;20033;-77
2021/12/14 06:06:43;;;;;;;7.97;2.50;;;5.70;99.90;;;;;;5001230;28;20447;-84
2021/12/14 06:09:15;;;;;;;9.52;1.95;;;5.80;99.90;;;;;;5001327;28;20445;-78
2021/12/14 06:12:03;;;;;;;5.45;1.98;;;5.70;99.90;;;;;;5035089;28;20501;-78
2021/12/14 06:14:33;;;;;;;5.95;1.73;;;5.80;99.90;;;;;;5035012;28;20534;-78
2021/12/14 06:17:05;;;;;;;9.48;2.45;;;5.80;99.90;;;;;;5035052;28;20029;-77
2021/12/14 06:19:39;;;;;;;4.57;1.95;;;5.80;99.90;;;;;;5017798;28;20494;-77
2021/12/14 06:22:10;;;;;;;9.85;2.22;;;5.80;99.90;;;;;;5017327;28;20389;-78
2021/12/14 06:24:40;;;;;;;4.95;2.42;;;5.80;99.90;;;;;;4993733;28;20049;-78
2021/12/14 06:27:11;;;;;;;5.53;2.28;;;5.80;99.90;;;;;;4977229;28;20049;-77
2021/12/14 06:29:45;;;;;;;9.18;2.90;;;5.80;99.90;;;;;;4977254;28;20504;-79
2021/12/14 06:32:28;;;;;;;7.63;2.75;;;5.80;99.90;;;;;;4993490;28;20130;-79
2021/12/14 06:35:07;;;;;;;9.25;2.63;;;5.80;99.90;;;;;;4993565;28;20069;-79
2021/12/14 06:40:10;;;;;;;9.82;3.35;;;5.90;99.90;;;;;;4976950;28;20112;-77
2021/12/14 06:42:41;;;;;;;8.10;3.00;;;5.90;99.90;;;;;;4993617;28;20045;-77
2021/12/14 06:45:12;;;;;;;11.73;3.63;;;5.90;99.90;;;;;;4976906;28;20026;-77
2021/12/14 06:47:46;;;;;;;6.38;3.10;;;5.90;99.90;;;;;;5009153;28;20030;-76
2021/12/14 06:50:21;;;;;;;5.97;3.28;;;6.00;99.90;;;;;;5013359;28;20046;-77
2021/12/14 06:53:03;;;;;;;5.70;3.28;;;6.00;99.90;;;;;;4988395;28;20034;-77
2021/12/14 06:55:55;;;;;;;11.07;3.13;;;6.10;99.90;;;;;;4993119;28;20050;-77
2021/12/14 06:58:56;;;;;;;;;;;6.20;99.90;;;;;;4980213;28;20050;-77
2021/12/14 07:01:41;;;;;;;;;;;6.20;99.90;;;;;;5029846;28;19915;-77
2021/12/14 07:04:12;;;;;;;6.13;3.00;;;6.30;99.90;;;;;;5035160;28;20003;-77
2021/12/14 07:06:52;;;;;;;20.13;3.00;;;6.40;99.90;;;;;;5034652;28;20025;-79
2021/12/14 07:09:24;;;;;;;8.90;2.88;;;6.60;99.90;;;;;;5015703;28;20053;-78
2021/12/14 07:12:06;;;;;;;8.40;3.28;;;6.80;99.90;;;;;;5034063;28;20036;-78
2021/12/14 07:14:33;;;;;;;6.90;2.78;;;6.90;99.90;;;;;;5016203;28;20112;-79
2021/12/14 07:17:10;;;;;;;9.32;3.08;;;6.90;99.90;;;;;;5016649;28;20029;-79
2021/12/14 07:19:43;;;;;;;5.55;2.47;;;7.00;99.90;;;;;;5033825;28;20078;-79
2021/12/14 07:22:35;;;;;;;9.25;2.95;;;7.10;99.90;;;;;;5016098;28;20112;-78
2021/12/14 07:25:14;;;;;;;6.47;2.85;;;7.20;99.90;;;;;;5016549;28;20021;-78
2021/12/14 07:27:43;;;;;;;6.97;3.25;;;7.30;99.90;;;;;;5034138;28;20057;-78
2021/12/14 07:30:37;;;;;;;4.80;2.35;;;7.40;99.90;;;;;;5015969;28;20110;-78
2021/12/14 07:33:17;;;;;;;6.43;2.95;;;7.60;99.90;;;;;;4999529;28;20052;-79
2021/12/14 07:36:00;;;;;;;5.53;2.90;;;7.80;99.90;;;;;;5033753;28;20034;-78
2021/12/14 07:38:41;;;;;;;8.68;3.42;;;8.00;99.90;;;;;;4999774;28;20030;-78
2021/12/14 07:41:23;;;;;;;10.70;3.05;;;8.10;99.90;;;;;;5016063;28;20038;-78
2021/12/14 07:43:52;;;;;;;6.88;2.90;;;8.20;99.90;;;;;;5033889;28;20071;-80
2021/12/14 07:46:33;;;;;;;5.65;2.42;;;8.20;99.90;;;;;;4999522;28;20059;-80
2021/12/14 07:49:33;;;;;;;10.30;3.03;;;8.30;99.90;;;;;;4999586;28;20079;-80
2021/12/14 07:52:14;;;;;;;6.82;3.03;;;8.30;99.90;;;;;;4999537;28;20509;-80
2021/12/14 07:54:58;;;;;;;7.82;2.50;;;8.30;99.90;;;;;;5033462;28;20048;-79
2021/12/14 07:57:31;;;;;;;6.88;2.67;;;8.30;99.90;;;;;;5015735;28;20026;-80
2021/12/14 08:00:06;;;;;;;7.47;2.83;;;8.30;99.90;;;;;;5015778;28;20037;-80
2021/12/14 08:02:42;;;;;;;6.57;2.47;;;8.40;99.90;;;;;;5016603;28;20033;-80
2021/12/14 08:05:26;;;;;;;5.82;2.00;;;8.50;99.90;;;;;;5033654;28;20035;-80
2021/12/14 08:07:57;;;;;;;4.90;2.58;;;8.60;99.90;;;;;;5015534;28;20366;-80
2021/12/14 08:10:27;;;;;;;5.82;2.83;;;8.70;99.90;;;;;;4998960;28;20483;-80
2021/12/14 08:13:03;;;;;;;6.82;2.50;;;8.70;99.90;;;;;;4999125;28;20057;-80
2021/12/14 08:15:36;;;;;;;6.93;3.10;;;8.70;99.90;;;;;;5015507;28;20029;-80
2021/12/14 08:18:16;;;;;;;4.18;2.50;;;8.70;99.90;;;;;;5033210;28;20030;-80
2021/12/14 08:20:57;;;;;;;8.05;3.90;;;8.80;99.90;;;;;;5016221;28;20103;-80
2021/12/14 08:23:37;;;;;;;13.85;3.63;;;8.90;99.90;;;;;;5019410;28;20037;-80
2021/12/14 08:26:22;;;;;;;8.38;3.45;;;9.00;99.90;;;;;;5003171;28;20131;-79
2021/12/14 08:29:01;;;;;;;6.78;3.10;;;9.10;99.90;;;;;;5019391;28;20033;-79
2021/12/14 08:31:35;;;;;;;5.32;2.67;;;9.20;99.90;;;;;;5037115;28;20065;-79
2021/12/14 08:34:06;;;;;;;8.15;2.63;;;9.40;99.90;;;;;;5037156;28;20554;-79
2021/12/14 08:36:39;;;;;;;6.63;2.15;;;9.60;99.90;;;;;;5019747;28;20029;-79
2021/12/14 08:39:38;;;;;;;11.25;2.45;;;9.80;99.90;;;;;;5036926;28;20033;-79
2021/12/14 08:42:15;;;;;;;7.38;2.45;;;9.90;99.90;;;;;;5036723;28;20036;-79
2021/12/14 08:44:52;;;;;;;5.97;2.10;;;10.00;99.90;;;;;;5036750;28;20570;-79
2021/12/14 08:47:32;;;;;;;4.22;2.35;;;10.10;99.90;;;;;;5036933;28;20025;-79
2021/12/14 08:50:03;;;;;;;8.30;2.05;;;10.20;99.90;;;;;;5019103;28;20025;-79
2021/12/14 08:52:30;;;;;;;3.03;2.00;;;10.20;99.90;;;;;;5019094;28;20173;-79
2021/12/14 08:55:01;;;;;;;6.82;2.33;;;10.30;99.90;;;;;;5036567;28;20475;-79
2021/12/14 08:57:31;;;;;;;7.15;1.77;;;10.30;99.90;;;;;;5036606;28;20032;-78
2021/12/14 09:00:06;;;;;;;3.15;2.13;;;10.30;99.90;;;;;;5036428;28;20048;-79
2021/12/14 09:02:33;;;;;;;3.78;2.25;;;10.50;99.90;;;;;;5019164;28;20033;-79
2021/12/14 09:05:22;;;;;;;8.85;2.65;;;10.60;99.90;;;;;;5018585;28;20025;-79
2021/12/14 09:07:48;;;;;;;10.27;2.10;;;10.80;99.90;;;;;;5036465;28;20535;-79
2021/12/14 09:10:20;;;;;;;2.83;1.83;;;10.80;99.90;;;;;;5048481;28;20056;-79
2021/12/14 09:12:50;;;;;;;5.72;1.52;;;10.90;99.90;;;;;;5038504;28;20024;-78
2021/12/14 09:15:26;;;;;;;3.30;1.90;;;10.90;99.90;;;;;;5021686;28;20033;-79
2021/12/14 09:17:54;;;;;;;4.75;2.13;;;10.80;99.90;;;;;;5038177;28;20025;-79
2021/12/14 09:20:29;;;;;;;6.65;1.92;;;10.70;99.90;;;;;;5021613;28;20490;-79
2021/12/14 09:23:00;;;;;;;5.03;1.90;;;10.70;99.90;;;;;;5056237;28;20393;-79
2021/12/14 09:25:29;;;;;;;3.65;1.75;;;10.70;99.90;;;;;;5038241;28;20486;-78
2021/12/14 09:27:59;;;;;;;4.15;1.77;;;10.70;99.90;;;;;;5038554;28;20106;-79
2021/12/14 09:30:32;;;;;;;5.07;1.52;;;10.70;99.90;;;;;;5037973;28;20031;-79
2021/12/14 09:32:59;;;;;;;5.65;2.22;;;10.90;99.90;;;;;;5021005;28;20120;-79
2021/12/14 09:35:28;;;;;;;4.38;1.50;;;11.00;99.90;;;;;;5038098;28;20040;-79
2021/12/14 09:37:57;;;;;;;3.80;1.67;;;11.00;99.90;;;;;;5038265;28;20025;-79
2021/12/14 09:40:33;;;;;;;6.07;1.88;;;11.10;99.90;;;;;;5021127;28;20478;-80
2021/12/14 09:43:00;;;;;;;3.35;1.63;;;11.10;99.90;;;;;;5037788;28;20486;-79
2021/12/14 09:45:37;;;;;;;4.40;2.05;;;11.00;99.90;;;;;;5037724;28;20069;-79
2021/12/14 09:48:04;;;;;;;5.65;1.98;;;11.00;99.90;;;;;;5037705;28;20478;-79
2021/12/14 09:50:35;;;;;;;5.57;1.83;;;11.10;99.90;;;;;;5037623;28;20075;-80
2021/12/14 09:53:09;;;;;;;3.92;2.10;;;11.10;99.90;;;;;;5021043;28;20022;-79
2021/12/14 09:55:39;;;;;;;5.37;1.57;;;11.10;99.90;;;;;;5035941;28;20090;-79
2021/12/14 09:58:20;;;;;;;3.92;1.75;;;11.10;99.90;;;;;;5019322;28;20272;-80
2021/12/14 10:00:52;;;;;;;4.80;1.55;;;11.10;99.90;;;;;;5036072;28;20037;-79
2021/12/14 10:03:19;;;;;;;4.10;1.63;;;11.30;99.90;;;;;;5036825;28;20083;-79
2021/12/14 10:05:57;;;;;;;7.88;1.58;;;11.40;99.90;;;;;;5055175;28;20036;-79
2021/12/14 10:08:32;;;;;;;2.53;1.58;;;11.40;99.90;;;;;;5037515;28;20053;-79
2021/12/14 10:11:05;;;;;;;3.10;1.55;;;11.50;99.90;;;;;;5002580;28;20050;-79
2021/12/14 10:13:36;;;;;;;3.22;1.45;;;11.50;99.90;;;;;;5035388;28;20037;-79
2021/12/14 10:16:05;;;;;;;8.05;1.80;;;11.30;99.90;;;;;;5001129;28;20029;-80
2021/12/14 10:18:39;;;;;;;7.35;1.88;;;11.20;99.90;;;;;;5017506;28;20030;-80
2021/12/14 10:21:26;;;;;;;3.05;1.23;;;11.10;99.90;;;;;;5017332;28;20041;-79
2021/12/14 10:23:57;;;;;;;4.85;1.98;;;11.10;99.90;;;;;;5000842;28;20029;-79
2021/12/14 10:26:25;;;;;;;4.07;1.77;;;11.10;99.90;;;;;;5017334;28;20025;-79
2021/12/14 10:28:55;;;;;;;5.40;1.77;;;11.10;99.90;;;;;;5000819;28;20025;-80
2021/12/14 10:31:31;;;;;;;3.95;1.38;;;11.20;99.90;;;;;;5034815;28;20029;-79
2021/12/14 10:34:01;;;;;;;3.70;1.83;;;11.20;99.90;;;;;;5017081;28;20075;-80
2021/12/14 10:36:36;;;;;;;2.47;1.38;;;11.20;99.90;;;;;;5016930;28;20040;-79
2021/12/14 10:44:22;;;;;;;4.97;1.85;;;11.30;99.90;;;;;;5015876;28;20097;-79
2021/12/14 10:46:52;;;;;;;3.58;1.98;;;11.30;99.90;;;;;;5000294;28;20029;-79
2021/12/14 10:49:24;;;;;;;1.85;1.42;;;11.30;99.90;;;;;;5016935;28;20036;-79
2021/12/14 10:51:58;;;;;;;5.07;1.65;;;11.30;99.90;;;;;;5000258;28;20041;-79
2021/12/14 10:54:27;;;;;;;3.75;1.55;;;11.30;99.90;;;;;;5016582;28;20030;-79
2021/12/14 10:57:06;;;;;;;4.43;1.50;;;11.40;99.90;;;;;;5016548;28;20175;-80
2021/12/14 10:59:44;;;;;;;1.70;1.40;;;11.40;99.90;;;;;;5000179;28;20037;-80
2021/12/14 11:02:11;;;;;;;7.32;1.67;;;11.50;99.90;;;;;;5000253;28;20022;-76
2021/12/14 11:04:53;;;;;;;3.63;1.65;;;11.50;99.90;;;;;;5034256;28;20053;-64
2021/12/14 11:07:43;;;;;;;6.00;2.22;;;11.50;99.90;;;;;;5034330;28;20025;-64
2021/12/14 11:10:13;;;;;;;3.72;1.85;;;11.50;99.90;;;;;;5045539;28;20060;-64
2021/12/14 11:12:45;;;;;;;4.85;1.83;;;11.50;99.90;;;;;;5054192;28;20033;-64
2021/12/14 11:15:17;;;;;;;3.65;1.67;;;11.50;99.90;;;;;;5053837;28;20025;-65
2021/12/14 11:20:42;;;;;;;3.05;1.67;;;11.60;99.90;;;;;;5053703;28;20074;-64
2021/12/14 11:23:18;;;;;;;3.78;1.35;;;11.50;99.90;;;;;;5054067;28;20163;-65
2021/12/14 11:25:59;;;;;;;2.83;1.77;;;11.50;99.90;;;;;;5036201;28;20120;-65
2021/12/14 11:28:31;;;;;;;3.90;1.40;;;11.50;99.90;;;;;;5053730;28;20020;-65
2021/12/14 11:31:03;;;;;;;9.68;2.20;;;11.50;99.90;;;;;;5053973;28;20489;-65
2021/12/14 11:33:45;;;;;;;7.93;1.80;;;11.50;99.90;;;;;;5053998;28;20078;-65
2021/12/14 11:36:14;;;;;;;5.00;1.55;;;11.60;99.90;;;;;;5053576;28;20159;-65
2021/12/14 11:38:43;;;;;;;14.30;2.03;;;11.60;99.90;;;;;;5053422;28;20066;-65
2021/12/14 11:41:32;;;;;;;4.68;2.05;;;11.60;99.90;;;;;;5053754;28;20028;-64
2021/12/14 11:44:13;;;;;;;2.85;1.77;;;11.70;99.90;;;;;;5053634;28;20374;-65
2021/12/14 11:46:56;;;;;;;4.70;1.70;;;11.70;99.90;;;;;;5053461;28;20060;-65
2021/12/14 11:49:37;;;;;;;5.90;1.80;;;11.80;99.90;;;;;;5053646;28;20389;-65
2021/12/14 11:52:04;;;;;;;4.47;2.10;;;11.80;99.90;;;;;;5053954;28;20021;-65
2021/12/14 11:54:41;;;;;;;5.35;2.00;;;11.70;99.90;;;;;;5053447;28;20037;-65
2021/12/14 11:57:09;;;;;;;4.18;2.00;;;11.60;99.90;;;;;;5036038;28;20025;-65
2021/12/14 11:59:37;;;;;;;6.28;1.73;;;11.60;99.90;;;;;;5053094;28;20088;-65
2021/12/14 12:02:05;;;;;;;2.67;1.70;;;11.60;99.90;;;;;;5035405;28;20047;-65
2021/12/14 12:04:35;;;;;;;4.28;1.77;;;11.60;99.90;;;;;;5035329;28;20497;-64
2021/12/14 12:10:00;;;;;;;3.47;1.48;;;11.60;99.90;;;;;;5027394;28;20449;-65
2021/12/14 12:12:38;;;;;;;3.47;1.65;;;11.60;99.90;;;;;;5033526;28;20075;-65
2021/12/14 12:15:23;;;;;;;5.68;2.20;;;11.50;99.90;;;;;;5033503;28;20068;-65
2021/12/14 12:18:00;;;;;;;5.13;1.92;;;11.50;99.90;;;;;;5033095;28;20356;-65
2021/12/14 12:20:48;;;;;;;6.70;2.20;;;11.50;99.90;;;;;;5033125;28;20136;-65
2021/12/14 12:23:18;;;;;;;5.55;2.05;;;11.50;99.90;;;;;;5033041;28;20101;-65
2021/12/14 12:25:54;;;;;;;2.65;1.50;;;11.50;99.90;;;;;;5015450;28;20140;-65
2021/12/14 12:28:30;;;;;;;2.05;1.40;;;11.50;99.90;;;;;;5015427;28;20032;-65
2021/12/14 12:31:06;;;;;;;6.95;1.52;;;11.50;99.90;;;;;;5033016;28;20475;-64
2021/12/14 12:33:43;;;;;;;2.75;1.60;;;11.50;99.90;;;;;;5032917;28;20029;-65
2021/12/14 12:36:22;;;;;;;5.45;1.85;;;11.50;99.90;;;;;;5015392;28;20025;-64
2021/12/14 12:38:58;;;;;;;4.47;1.75;;;11.50;99.90;;;;;;5033196;28;20037;-65
2021/12/14 12:41:48;;;;;;;4.05;1.90;;;11.50;99.90;;;;;;5033241;28;20386;-64
2021/12/14 12:44:20;;;;;;;2.10;1.55;;;11.50;99.90;;;;;;5032817;28;20036;-65
2021/12/14 12:46:56;;;;;;;4.22;2.00;;;11.40;99.90;;;;;;5015304;28;20079;-65
2021/12/14 12:49:34;;;;;;;5.70;1.55;;;11.50;99.90;;;;;;5032845;28;20514;-65
2021/12/14 12:52:12;;;;;;;4.03;1.55;;;11.40;99.90;;;;;;5033180;28;20034;-65
2021/12/14 12:55:04;;;;;;;1.95;1.17;;;11.50;99.90;;;;;;5032852;28;20502;-64
2021/12/14 12:57:56;;;;;;;2.10;1.30;;;11.50;99.90;;;;;;5032792;28;20482;-64
2021/12/14 13:00:43;;;;;;;5.57;1.42;;;11.50;99.90;;;;;;4933615;29;20463;-64
2021/12/14 13:03:20;;;;;;;3.40;1.50;;;11.50;99.90;;;;;;4933617;29;20043;-64
2021/12/14 13:06:06;;;;;;;4.25;1.73;;;11.50;99.90;;;;;;4934215;29;20036;-64
2021/12/14 13:08:39;;;;;;;2.90;1.40;;;11.40;99.90;;;;;;4921227;29;20055;-64
2021/12/14 13:11:19;;;;;;;2.33;1.48;;;11.50;99.90;;;;;;4955078;28;20527;-64
2021/12/14 13:14:06;;;;;;;4.97;1.40;;;11.50;99.90;;;;;;4956685;29;20135;-64
2021/12/14 13:16:44;;;;;;;2.55;1.42;;;11.50;99.90;;;;;;4956133;29;20031;-64
2021/12/14 13:19:25;;;;;;;2.85;1.80;;;11.50;99.90;;;;;;4956471;29;20126;-64
2021/12/14 13:22:07;;;;;;;3.13;1.98;;;11.50;99.90;;;;;;4955962;29;20043;-64
2021/12/14 13:24:41;;;;;;;5.15;1.80;;;11.50;99.90;;;;;;4956040;29;20050;-64
2021/12/14 13:27:09;;;;;;;3.40;1.80;;;11.50;99.90;;;;;;4939887;29;20516;-64
2021/12/14 13:29:54;;;;;;;4.85;1.90;;;11.50;99.90;;;;;;4955732;28;20093;-64
2021/12/14 13:32:29;;;;;;;3.05;1.70;;;11.50;99.90;;;;;;4955717;29;20027;-64
2021/12/14 13:35:02;;;;;;;4.10;1.70;;;11.50;99.90;;;;;;4956538;29;20079;-64
2021/12/14 13:37:34;;;;;;;3.65;1.60;;;11.50;99.90;;;;;;4992978;28;20402;-64
2021/12/14 13:40:07;;;;;;;3.80;1.60;;;11.40;99.90;;;;;;5055509;28;20041;-64
2021/12/14 13:42:40;;;;;;;6.43;1.90;;;11.50;99.90;;;;;;5055961;28;20029;-65
2021/12/14 13:45:11;;;;;;;3.33;2.03;;;11.50;99.90;;;;;;5055598;28;20033;-65
2021/12/14 13:47:39;;;;;;;3.05;1.55;;;11.40;99.90;;;;;;5055888;28;20078;-65
2021/12/14 13:50:09;;;;;;;3.72;2.00;;;11.40;99.90;;;;;;5055318;28;20546;-65
2021/12/14 13:52:36;;;;;;;2.20;1.58;;;11.40;99.90;;;;;;5038181;28;20033;-65
2021/12/14 13:55:10;;;;;;;2.15;1.63;;;11.30;99.90;;;;;;5055360;28;20467;-65
2021/12/14 13:57:40;;;;;;;4.45;1.83;;;11.30;99.90;;;;;;5055681;28;20033;-65
2021/12/14 14:00:17;;;;;;;3.83;2.13;;;11.30;99.90;;;;;;5055369;28;20036;-65
2021/12/14 14:02:44;;;;;;;2.90;1.30;;;11.30;99.90;;;;;;5055185;28;20025;-65
2021/12/14 14:05:10;;;;;;;6.57;2.65;;;11.30;99.90;;;;;;5055149;28;20036;-65
2021/12/14 14:07:38;;;;;;;3.22;1.80;;;11.30;99.90;;;;;;5037404;28;20052;-64
2021/12/14 14:10:06;;;;;;;10.93;2.67;;;11.30;99.90;;;;;;5054945;28;20131;-65
2021/12/14 14:12:46;;;;;;;9.10;2.42;;;11.30;99.90;;;;;;5055418;28;20100;-65